LGKV/KVA METAR and TAF weather

Enter ICAO airport designator
Station Type Date Time Source
LGKV METAR 2024/06/15 20:50 UTC NOAA

LGKV 152050Z 00000KT 9999 FEW020 20/17 Q1011


Station Type Date Time Source
LGKV Decoded METAR 2024/06/15 20:50 UTC NOAA

Chrysoupoli Airport , Greece (LGKV) 40-59N 024-36E 5M
Jun 15, 2024 - 04:50 PM EDT / 2024.06.15 2050 UTC
Wind: Calm:0
Visibility: greater than 7 mile(s):0
Sky conditions: mostly clear
Temperature: 68 F (20 C)
Dew Point: 62 F (17 C)
Relative Humidity: 82%
Pressure (altimeter): 29.85 in. Hg (1011 hPa)
ob: LGKV 152050Z 00000KT 9999 FEW020 20/17 Q1011
cycle: 21

Station Type Date Time Source
LGKV TAF 2024/06/15 18:15 UTC NOAA